Terminal Aerodrome Forecast
Issued by NWS Newport/Morehead City, NC

Home | Current Version | Previous Version | Graphics & Text | Print | Product List | Glossary On
Versions: 1 2 3 4 5 6 7 8 9 10 11 12 13 14 15 16
000
FTUS42 KMHX 021123
TAFEWN
TAF
KEWN 021123Z 0212/0312 21006KT P6SM SCT100 BKN200
     FM021700 23012G19KT P6SM VCTS SCT050CB BKN100
     FM030000 22007KT P6SM VCTS BKN050CB
     FM030300 21006KT 3SM TSRA BKN025CB=

USA.gov is the U.S. government's official web portal to all federal, state and local government web resources and services.